KGLD/GLD METAR and TAF weather

Enter ICAO airport designator
Station Type Date Time Source
KGLD METAR 2020/04/05 20:53 UTC NOAA

KGLD 052053Z AUTO 15020G29KT 10SM CLR 19/06 A2977 RMK AO2 PK WND 18030/2013 SLP071 T01890061 56024


Station Type Date Time Source
KGLD Decoded METAR 2020/04/05 20:53 UTC NOAA

GOODLAND RENNER FIELD, KS, United States (KGLD) 39-22N 101-42W 1114M
Apr 05, 2020 - 04:53 PM EDT / 2020.04.05 2053 UTC
Wind: from the SSE (150 degrees) at 23 MPH (20 KT) gusting to 33 MPH (29 KT):0
Visibility: 10 mile(s):0
Sky conditions: clear
Temperature: 66.0 F (18.9 C)
Dew Point: 43.0 F (6.1 C)
Relative Humidity: 43%
Pressure (altimeter): 29.77 in. Hg (1008 hPa)
Pressure tendency: 0.07 inches (2.4 hPa) lower than three hours ago
ob: KGLD 052053Z AUTO 15020G29KT 10SM CLR 19/06 A2977 RMK AO2 PK WND 18030/2013 SLP071 T01890061 56024
cycle: 21

Station Type Date Time Source
KGLD TAF 2020/04/05 18:22 UTC NOAA

TAF KGLD 051720Z 0518/0618 17014G22KT P6SM FEW150 SCT250
FM052300 15013KT P6SM SKC
FM060100 14011KT P6SM SKC
FM060700 18008KT P6SM SKC
FM060900 22008KT P6SM SKC
FM061200 26008KT P6SM FEW130

Example: see airport list